createdAt,value
2022-11-18T00:01:32.387Z,33.00
2022-11-18T00:04:01.292Z,32.50
2022-11-18T00:06:30.630Z,31.25
2022-11-18T00:09:00.409Z,30.50
2022-11-18T00:11:47.361Z,34.00
2022-11-18T00:14:23.496Z,33.25
2022-11-18T00:16:57.605Z,32.25
2022-11-18T00:19:29.006Z,31.75
2022-11-18T00:21:57.772Z,33.50
2022-11-18T00:24:27.294Z,35.50
2022-11-18T00:26:55.622Z,35.00
2022-11-18T00:29:29.052Z,31.00
2022-11-18T00:31:58.246Z,32.50
2022-11-18T00:34:27.052Z,32.75
2022-11-18T00:36:55.320Z,33.50
2022-11-18T00:39:24.265Z,30.50
2022-11-18T00:42:11.284Z,31.67
2022-11-18T00:44:40.056Z,34.50
2022-11-18T00:47:08.765Z,30.25
2022-11-18T00:49:37.215Z,30.33
2022-11-18T00:52:06.646Z,33.50
2022-11-18T00:54:35.387Z,31.50
2022-11-18T00:57:05.451Z,31.75
2022-11-18T00:59:34.426Z,33.75
2022-11-18T01:02:02.573Z,31.75
2022-11-18T01:04:31.213Z,32.25
2022-11-18T01:06:59.656Z,32.50
2022-11-18T01:09:28.335Z,31.00
2022-11-18T01:12:15.490Z,31.50
2022-11-18T01:14:44.245Z,28.00
2022-11-18T01:17:31.112Z,30.50
2022-11-18T01:20:00.353Z,31.75
2022-11-18T01:22:28.646Z,30.00
2022-11-18T01:24:57.250Z,29.50
2022-11-18T01:27:25.462Z,29.25
2022-11-18T01:29:55.455Z,29.00
2022-11-18T01:32:25.313Z,30.00
2022-11-18T01:34:55.224Z,30.00
2022-11-18T01:37:24.053Z,28.00
2022-11-18T01:39:53.364Z,26.75
2022-11-18T01:42:21.502Z,29.00
2022-11-18T01:45:24.770Z,27.75
2022-11-18T01:48:02.003Z,28.50
2022-11-18T01:50:31.294Z,29.25
2022-11-18T01:53:04.074Z,29.00
2022-11-18T01:55:35.402Z,28.67
2022-11-18T01:58:12.614Z,28.25
2022-11-18T02:00:41.353Z,27.25
2022-11-18T02:03:09.931Z,27.50
2022-11-18T02:05:41.282Z,27.00
2022-11-18T02:08:10.143Z,28.00
2022-11-18T02:10:38.869Z,25.75
2022-11-18T02:13:08.037Z,28.00
2022-11-18T02:15:57.649Z,26.00
2022-11-18T02:18:53.189Z,26.75
2022-11-18T02:21:34.361Z,28.00
2022-11-18T02:24:18.737Z,25.25
2022-11-18T02:26:55.698Z,25.75
2022-11-18T02:29:27.330Z,27.00
2022-11-18T02:32:12.547Z,26.67
2022-11-18T02:34:47.938Z,27.00
2022-11-18T02:37:29.729Z,24.33
2022-11-18T02:40:17.968Z,27.50
2022-11-18T02:42:51.207Z,24.75
2022-11-18T02:45:20.470Z,27.00
2022-11-18T02:47:51.228Z,27.67
2022-11-18T02:50:24.760Z,28.67
2022-11-18T02:52:58.916Z,25.50
2022-11-18T02:55:31.298Z,23.00
2022-11-18T02:58:02.893Z,26.00
2022-11-18T03:00:32.708Z,27.75
2022-11-18T03:03:24.988Z,26.00
2022-11-18T03:06:16.008Z,24.75
2022-11-18T03:09:03.732Z,27.00
2022-11-18T03:11:38.258Z,27.00
2022-11-18T03:14:08.498Z,25.50
2022-11-18T03:17:00.031Z,26.33
2022-11-18T03:19:40.409Z,25.67
2022-11-18T03:22:14.249Z,25.67
2022-11-18T03:24:50.707Z,24.50
2022-11-18T03:27:32.227Z,25.25
2022-11-18T03:30:07.181Z,26.25
2022-11-18T03:32:39.747Z,26.00
2022-11-18T03:35:15.219Z,24.33
2022-11-18T03:37:45.599Z,23.25
2022-11-18T03:40:27.232Z,25.67
2022-11-18T03:43:04.809Z,22.75
2022-11-18T03:45:44.029Z,24.50
2022-11-18T03:48:27.844Z,23.00
2022-11-18T03:51:01.459Z,23.50
2022-11-18T03:53:32.828Z,24.50
2022-11-18T03:56:16.972Z,22.75
2022-11-18T03:58:57.438Z,25.50
2022-11-18T04:01:59.238Z,26.00
2022-11-18T04:04:28.349Z,23.00
2022-11-18T04:07:21.507Z,22.00
2022-11-18T04:10:00.354Z,23.25
2022-11-18T04:12:31.759Z,23.25
2022-11-18T04:15:00.213Z,22.67
2022-11-18T04:17:29.779Z,24.75
2022-11-18T04:19:57.960Z,22.00
2022-11-18T04:22:27.389Z,23.25
2022-11-18T04:24:55.580Z,22.67
2022-11-18T04:27:25.358Z,21.75
2022-11-18T04:29:53.496Z,21.25
2022-11-18T04:32:23.199Z,23.50
2022-11-18T04:34:51.298Z,23.25
2022-11-18T04:37:20.021Z,23.25
2022-11-18T04:39:48.157Z,23.75
2022-11-18T04:42:16.669Z,23.25
2022-11-18T04:44:44.999Z,22.25
2022-11-18T04:47:14.700Z,22.00
2022-11-18T04:49:42.841Z,21.50
2022-11-18T04:52:11.362Z,20.50
2022-11-18T04:54:39.733Z,22.00
2022-11-18T04:57:08.488Z,22.00
2022-11-18T04:59:37.359Z,22.50
2022-11-18T05:02:08.151Z,21.67
2022-11-18T05:04:36.457Z,20.75
2022-11-18T05:07:05.401Z,22.50
2022-11-18T05:09:34.169Z,22.00
2022-11-18T05:12:21.346Z,22.75
2022-11-18T05:14:50.837Z,21.50
2022-11-18T05:17:20.202Z,22.50
2022-11-18T05:19:48.386Z,21.25
2022-11-18T05:22:17.172Z,22.50
2022-11-18T05:24:45.321Z,24.75
2022-11-18T05:27:14.719Z,25.50
2022-11-18T05:29:43.192Z,24.25
2022-11-18T05:32:12.392Z,25.25
2022-11-18T05:34:41.847Z,25.67
2022-11-18T05:37:10.587Z,25.25
2022-11-18T05:39:38.906Z,25.50
2022-11-18T05:42:26.349Z,24.25
2022-11-18T05:44:58.044Z,26.00
2022-11-18T05:47:27.854Z,26.00
2022-11-18T05:49:56.029Z,27.00
2022-11-18T05:52:24.521Z,28.25
2022-11-18T05:54:52.763Z,27.00
2022-11-18T05:57:21.199Z,28.50
2022-11-18T05:59:49.306Z,28.50
2022-11-18T06:02:21.950Z,31.50
2022-11-18T06:04:57.637Z,28.25
2022-11-18T06:07:31.122Z,30.00
2022-11-18T06:10:05.177Z,33.25
2022-11-18T06:12:40.181Z,29.00
2022-11-18T06:15:11.469Z,30.00
2022-11-18T06:17:50.499Z,31.00
2022-11-18T06:20:20.198Z,32.25
2022-11-18T06:22:51.231Z,32.00
2022-11-18T06:25:20.519Z,28.33
2022-11-18T06:27:51.545Z,32.75
2022-11-18T06:30:20.110Z,32.25
2022-11-18T06:32:48.831Z,32.00
2022-11-18T06:35:17.299Z,32.67
2022-11-18T06:37:47.330Z,33.75
2022-11-18T06:40:15.740Z,32.50
2022-11-18T06:43:02.999Z,34.00
2022-11-18T06:45:31.407Z,30.00
2022-11-18T06:48:05.127Z,33.25
2022-11-18T06:50:33.563Z,30.75
2022-11-18T06:53:02.279Z,34.50
2022-11-18T06:55:30.538Z,32.25
2022-11-18T06:58:00.156Z,36.00
2022-11-18T07:00:28.393Z,35.50
2022-11-18T07:02:56.928Z,31.50
2022-11-18T07:05:25.279Z,32.50
2022-11-18T07:07:55.246Z,36.50
2022-11-18T07:10:23.650Z,32.75
2022-11-18T07:12:52.469Z,32.50
2022-11-18T07:15:20.891Z,34.00
2022-11-18T07:17:49.511Z,31.25
2022-11-18T07:20:17.865Z,33.67
2022-11-18T07:22:46.641Z,33.75
2022-11-18T07:25:14.915Z,34.75
2022-11-18T07:27:44.348Z,32.75
2022-11-18T07:30:13.848Z,36.25
2022-11-18T07:32:42.489Z,36.00
2022-11-18T07:35:10.888Z,34.50
2022-11-18T07:37:39.530Z,35.67
2022-11-18T07:40:09.689Z,38.75
2022-11-18T07:42:45.270Z,36.67
2022-11-18T07:45:26.140Z,38.50
2022-11-18T07:47:54.807Z,36.50
2022-11-18T07:50:23.062Z,38.00
2022-11-18T07:52:51.661Z,37.25
2022-11-18T07:55:19.981Z,40.75
2022-11-18T07:57:48.691Z,42.25
2022-11-18T08:00:18.080Z,49.50
2022-11-18T08:02:51.020Z,44.50
2022-11-18T08:05:19.382Z,41.33
2022-11-18T08:07:48.020Z,51.00
2022-11-18T08:10:16.819Z,48.50
2022-11-18T08:12:45.351Z,42.00
2022-11-18T08:15:13.819Z,43.00
2022-11-18T08:17:42.550Z,46.50
2022-11-18T08:20:11.659Z,43.25
2022-11-18T08:22:40.229Z,54.25
2022-11-18T08:25:09.230Z,56.00
2022-11-18T08:27:37.883Z,49.33
2022-11-18T08:30:06.738Z,46.67
2022-11-18T08:32:35.802Z,49.67
2022-11-18T08:35:09.602Z,46.50
2022-11-18T08:37:40.785Z,45.50
2022-11-18T08:40:09.931Z,50.33
2022-11-18T08:42:39.681Z,46.75
2022-11-18T08:45:11.120Z,47.50
2022-11-18T08:47:39.951Z,47.50
2022-11-18T08:50:10.628Z,47.50
2022-11-18T08:52:39.484Z,50.00
2022-11-18T08:55:08.066Z,47.50
2022-11-18T08:57:36.714Z,49.00
2022-11-18T09:00:06.238Z,45.00
2022-11-18T09:02:35.752Z,48.00
2022-11-18T09:05:04.076Z,51.00
2022-11-18T09:07:32.896Z,48.25
2022-11-18T09:10:01.202Z,47.00
2022-11-18T09:12:30.259Z,50.33
2022-11-18T09:15:15.128Z,48.00
2022-11-18T09:17:45.174Z,49.75
2022-11-18T09:20:19.689Z,48.00
2022-11-18T09:22:47.998Z,48.75
2022-11-18T09:25:18.040Z,48.75
2022-11-18T09:27:48.024Z,50.67
2022-11-18T09:30:17.610Z,48.67
2022-11-18T09:32:45.920Z,49.00
2022-11-18T09:35:14.932Z,50.50
2022-11-18T09:37:43.163Z,52.25
2022-11-18T09:40:17.392Z,52.50
2022-11-18T09:43:06.621Z,50.33
2022-11-18T09:45:39.242Z,48.25
2022-11-18T09:48:21.360Z,46.50
2022-11-18T09:50:51.321Z,44.00
2022-11-18T09:53:26.379Z,46.75
2022-11-18T09:55:56.561Z,47.33
2022-11-18T09:58:35.657Z,47.00
2022-11-18T10:01:12.513Z,47.50
2022-11-18T10:03:41.243Z,47.50
2022-11-18T10:06:10.513Z,50.25
2022-11-18T10:08:56.571Z,48.50
2022-11-18T10:11:30.282Z,48.00
2022-11-18T10:14:24.349Z,51.00
2022-11-18T10:17:09.280Z,49.00
2022-11-18T10:19:58.002Z,47.50
2022-11-18T10:22:38.940Z,46.50
2022-11-18T10:25:15.436Z,49.00
2022-11-18T10:27:46.651Z,46.75
2022-11-18T10:30:26.476Z,45.50
2022-11-18T10:33:04.980Z,45.25
2022-11-18T10:35:38.309Z,47.33
2022-11-18T10:38:18.357Z,47.00
2022-11-18T10:41:02.561Z,48.00
2022-11-18T10:43:55.714Z,50.50
2022-11-18T10:46:26.498Z,45.25
2022-11-18T10:49:21.560Z,45.67
2022-11-18T10:52:10.621Z,50.50
2022-11-18T10:54:41.642Z,43.67
2022-11-18T10:57:21.680Z,46.00
2022-11-18T10:59:52.481Z,47.75
2022-11-18T11:02:21.768Z,41.75
2022-11-18T11:04:52.499Z,43.00
2022-11-18T11:07:29.525Z,45.50
2022-11-18T11:10:07.635Z,43.75
2022-11-18T11:12:47.578Z,43.50
2022-11-18T11:15:23.284Z,42.25
2022-11-18T11:18:15.974Z,43.50
2022-11-18T11:20:45.557Z,42.00
2022-11-18T11:23:22.137Z,41.25
2022-11-18T11:29:07.244Z,39.25
2022-11-18T11:31:41.614Z,41.67
2022-11-18T11:34:24.043Z,43.33
2022-11-18T11:37:19.455Z,41.67
2022-11-18T11:40:21.656Z,41.25
2022-11-18T11:43:20.663Z,42.00
2022-11-18T11:46:12.965Z,41.75
2022-11-18T11:48:59.148Z,44.67
2022-11-18T11:51:48.334Z,42.00
2022-11-18T11:54:16.925Z,44.75
2022-11-18T11:57:28.235Z,47.50
2022-11-18T12:00:02.075Z,44.25
2022-11-18T12:03:34.446Z,44.00
2022-11-18T12:06:04.466Z,44.00
2022-11-18T12:08:34.005Z,43.75
2022-11-18T12:11:41.026Z,42.50
2022-11-18T12:14:21.896Z,43.50
2022-11-18T12:17:05.362Z,43.67
2022-11-18T12:19:39.006Z,40.33
2022-11-18T12:22:09.224Z,39.50
2022-11-18T12:24:42.806Z,39.00
2022-11-18T12:27:14.721Z,42.25
2022-11-18T12:29:55.796Z,42.00
2022-11-18T12:32:48.336Z,39.33
2022-11-18T12:35:16.678Z,36.67
2022-11-18T12:37:58.138Z,37.50
2022-11-18T12:40:34.396Z,39.75
2022-11-18T12:43:23.265Z,39.25
2022-11-18T12:45:56.417Z,40.50
2022-11-18T12:48:27.640Z,40.67
2022-11-18T12:50:58.819Z,38.67
2022-11-18T12:53:54.366Z,37.00
2022-11-18T12:56:35.579Z,38.00
2022-11-18T12:59:04.508Z,34.50
2022-11-18T13:01:37.985Z,37.00
2022-11-18T13:04:20.415Z,34.50
2022-11-18T13:06:48.787Z,34.25
2022-11-18T13:09:18.366Z,35.25
2022-11-18T13:12:01.142Z,35.75
2022-11-18T13:14:59.086Z,36.50
2022-11-18T13:17:46.056Z,35.00
2022-11-18T13:20:35.989Z,35.75
2022-11-18T13:23:28.659Z,35.00
2022-11-18T13:26:13.246Z,32.67
2022-11-18T13:28:54.506Z,32.75
2022-11-18T13:31:41.111Z,32.00
2022-11-18T13:34:27.346Z,31.50
2022-11-18T13:36:58.684Z,34.50
2022-11-18T13:39:32.935Z,33.75
2022-11-18T13:42:21.527Z,35.75
2022-11-18T13:44:56.889Z,34.25
2022-11-18T13:47:48.317Z,34.75
2022-11-18T13:50:31.397Z,35.25
2022-11-18T13:53:31.717Z,33.25
2022-11-18T13:56:02.798Z,33.33
2022-11-18T13:58:40.043Z,32.50
2022-11-18T14:01:23.688Z,35.00
2022-11-18T14:04:01.467Z,35.00
2022-11-18T14:06:41.422Z,35.67
2022-11-18T14:09:17.961Z,33.50
2022-11-18T14:12:01.819Z,32.25
2022-11-18T14:14:33.857Z,34.75
2022-11-18T14:17:15.957Z,35.00
2022-11-18T14:19:45.477Z,37.00
2022-11-18T14:22:20.987Z,33.75
2022-11-18T14:25:17.595Z,33.33
2022-11-18T14:27:51.727Z,36.00
2022-11-18T14:30:33.849Z,37.50
2022-11-18T14:33:30.717Z,33.50
2022-11-18T14:36:15.579Z,33.50
2022-11-18T14:41:48.087Z,32.25
2022-11-18T14:44:18.835Z,33.67
2022-11-18T14:46:59.339Z,30.75
2022-11-18T14:49:31.176Z,33.50
2022-11-18T14:52:02.930Z,30.50
2022-11-18T14:54:31.715Z,36.75
2022-11-18T14:57:03.411Z,33.00
2022-11-18T14:59:32.169Z,30.33
2022-11-18T15:02:00.929Z,33.00
2022-11-18T15:04:29.329Z,31.00
2022-11-18T15:06:58.031Z,31.67
2022-11-18T15:09:26.931Z,33.25
2022-11-18T15:11:55.575Z,33.50
2022-11-18T15:14:23.907Z,32.00
2022-11-18T15:16:54.044Z,29.50
2022-11-18T15:19:22.270Z,31.50
2022-11-18T15:21:51.887Z,34.25
2022-11-18T15:24:20.670Z,31.50
2022-11-18T15:26:49.817Z,35.25
2022-11-18T15:29:19.168Z,32.00
2022-11-18T15:31:48.614Z,34.75
2022-11-18T15:34:18.619Z,34.25
2022-11-18T15:36:47.519Z,33.75
2022-11-18T15:39:15.815Z,36.75
2022-11-18T15:41:44.438Z,33.25
2022-11-18T15:44:13.153Z,33.00
2022-11-18T15:46:42.600Z,34.00
2022-11-18T15:49:14.118Z,35.33
2022-11-18T15:51:42.772Z,32.75
2022-11-18T15:54:11.111Z,33.50
2022-11-18T15:56:40.157Z,33.00
2022-11-18T15:59:16.479Z,32.33
2022-11-18T16:01:47.897Z,33.50
2022-11-18T16:04:19.107Z,32.50
2022-11-18T16:06:49.778Z,33.50
2022-11-18T16:09:18.657Z,32.50
2022-11-18T16:12:06.236Z,31.50
2022-11-18T16:14:37.346Z,33.75
2022-11-18T16:17:05.836Z,33.67
2022-11-18T16:19:34.536Z,34.50
2022-11-18T16:22:02.780Z,30.75
2022-11-18T16:24:31.657Z,33.25
2022-11-18T16:27:00.066Z,34.75
2022-11-18T16:29:28.563Z,32.00
2022-11-18T16:31:56.796Z,32.25
2022-11-18T16:34:27.327Z,30.33
2022-11-18T16:36:58.009Z,31.00
2022-11-18T16:39:27.912Z,34.00
2022-11-18T16:42:03.876Z,32.00
2022-11-18T16:44:36.531Z,31.50
2022-11-18T16:47:12.469Z,30.25
2022-11-18T16:49:44.236Z,31.50
2022-11-18T16:52:12.797Z,31.75
2022-11-18T16:54:45.404Z,32.00
2022-11-18T16:57:14.905Z,32.33
2022-11-18T16:59:43.584Z,34.00
2022-11-18T17:02:13.512Z,32.00
2022-11-18T17:04:42.711Z,33.25
2022-11-18T17:07:10.934Z,33.50
2022-11-18T17:09:39.760Z,33.00
2022-11-18T17:12:08.241Z,33.00
2022-11-18T17:14:38.460Z,32.25
2022-11-18T17:17:07.424Z,32.50
2022-11-18T17:19:36.862Z,33.33
2022-11-18T17:22:05.182Z,36.50
2022-11-18T17:24:33.782Z,34.50
2022-11-18T17:27:02.016Z,33.50
2022-11-18T17:29:30.695Z,35.00
2022-11-18T17:31:59.036Z,33.75
2022-11-18T17:34:27.438Z,31.00
2022-11-18T17:36:55.558Z,31.50
2022-11-18T17:39:25.174Z,32.75
2022-11-18T17:42:11.913Z,33.67
2022-11-18T17:44:40.643Z,33.33
2022-11-18T17:47:09.030Z,34.25
2022-11-18T17:49:37.592Z,32.50
2022-11-18T17:52:06.440Z,34.50
2022-11-18T17:54:36.011Z,35.50
2022-11-18T17:57:04.284Z,36.25
2022-11-18T17:59:32.915Z,33.00
2022-11-18T18:02:01.527Z,35.25
2022-11-18T18:04:30.146Z,35.25
2022-11-18T18:06:58.289Z,36.33
2022-11-18T18:09:30.966Z,35.25
2022-11-18T18:12:00.917Z,34.75
2022-11-18T18:14:29.380Z,35.50
2022-11-18T18:16:57.509Z,34.00
2022-11-18T18:19:26.157Z,37.00
2022-11-18T18:21:54.934Z,35.50
2022-11-18T18:24:24.283Z,38.33
2022-11-18T18:26:52.912Z,35.00
2022-11-18T18:29:22.276Z,36.00
2022-11-18T18:31:50.698Z,38.50
2022-11-18T18:34:19.570Z,35.50
2022-11-18T18:36:47.881Z,39.50
2022-11-18T18:39:17.633Z,39.25
2022-11-18T18:41:48.034Z,37.00
2022-11-18T18:44:18.961Z,39.75
2022-11-18T18:46:47.480Z,37.00
2022-11-18T18:49:20.650Z,37.00
2022-11-18T18:51:55.735Z,39.00
2022-11-18T18:54:24.252Z,41.00
2022-11-18T18:56:52.420Z,41.67
2022-11-18T18:59:20.887Z,40.00
2022-11-18T19:01:49.189Z,39.75
2022-11-18T19:04:17.972Z,40.00
2022-11-18T19:07:02.889Z,40.00
2022-11-18T19:09:35.860Z,42.50
2022-11-18T19:12:23.263Z,43.67
2022-11-18T19:14:52.130Z,41.67
2022-11-18T19:17:20.645Z,41.00
2022-11-18T19:20:07.619Z,39.50
2022-11-18T19:22:36.266Z,39.00
2022-11-18T19:25:05.167Z,42.50
2022-11-18T19:27:36.567Z,41.50
2022-11-18T19:30:07.250Z,40.33
2022-11-18T19:32:39.686Z,39.25
2022-11-18T19:35:09.299Z,36.50
2022-11-18T19:37:37.733Z,41.75
2022-11-18T19:40:09.190Z,40.50
2022-11-18T19:42:39.923Z,37.67
2022-11-18T19:45:10.580Z,39.50
2022-11-18T19:47:39.007Z,42.00
2022-11-18T19:50:09.442Z,39.50
2022-11-18T19:52:37.892Z,43.33
2022-11-18T19:55:08.632Z,38.67
2022-11-18T19:57:36.878Z,40.67
2022-11-18T20:00:05.979Z,38.00
2022-11-18T20:02:38.771Z,41.00
2022-11-18T20:05:26.025Z,44.00
2022-11-18T20:07:56.146Z,40.00
2022-11-18T20:10:26.749Z,42.00
2022-11-18T20:12:58.254Z,40.00
2022-11-18T20:15:26.893Z,41.50
2022-11-18T20:17:55.589Z,39.50
2022-11-18T20:20:24.099Z,41.00
2022-11-18T20:22:53.972Z,38.75
2022-11-18T20:25:23.748Z,39.33
2022-11-18T20:27:52.053Z,37.33
2022-11-18T20:30:20.635Z,45.00
2022-11-18T20:32:49.055Z,37.00
2022-11-18T20:35:17.747Z,40.00
2022-11-18T20:37:46.235Z,40.33
2022-11-18T20:40:14.845Z,38.50
2022-11-18T20:43:01.946Z,39.50
2022-11-18T20:45:30.808Z,37.00
2022-11-18T20:47:59.086Z,35.25
2022-11-18T20:50:28.957Z,35.00
2022-11-18T20:52:57.552Z,38.50
2022-11-18T20:55:26.426Z,39.00
2022-11-18T20:57:54.655Z,39.50
2022-11-18T21:00:23.267Z,37.75
2022-11-18T21:02:51.515Z,43.25
2022-11-18T21:05:21.038Z,38.00
2022-11-18T21:07:50.677Z,36.25
2022-11-18T21:10:21.463Z,39.00
2022-11-18T21:13:08.377Z,39.50
2022-11-18T21:15:37.225Z,40.50
2022-11-18T21:18:06.166Z,39.25
2022-11-18T21:20:53.725Z,41.67
2022-11-18T21:23:22.165Z,37.75
2022-11-18T21:25:50.985Z,37.00
2022-11-18T21:28:19.464Z,41.50
2022-11-18T21:30:48.055Z,37.67
2022-11-18T21:33:17.704Z,38.00
2022-11-18T21:35:46.195Z,38.00
2022-11-18T21:38:14.457Z,37.67
2022-11-18T21:40:43.586Z,37.25
2022-11-18T21:43:11.855Z,40.75
2022-11-18T21:45:40.475Z,37.50
2022-11-18T21:48:08.627Z,37.25
2022-11-18T21:50:38.624Z,39.00
2022-11-18T21:53:08.075Z,38.00
2022-11-18T21:55:36.726Z,36.25
2022-11-18T21:58:05.205Z,39.00
2022-11-18T22:00:34.004Z,39.25
2022-11-18T22:03:02.475Z,37.75
2022-11-18T22:05:31.104Z,38.50
2022-11-18T22:07:59.966Z,37.33
2022-11-18T22:10:28.840Z,39.00
2022-11-18T22:12:57.300Z,38.00
2022-11-18T22:15:26.335Z,37.67
2022-11-18T22:17:55.113Z,38.25
2022-11-18T22:20:24.332Z,42.25
2022-11-18T22:22:52.663Z,39.75
2022-11-18T22:25:21.260Z,39.50
2022-11-18T22:27:50.862Z,39.50
2022-11-18T22:30:19.481Z,37.25
2022-11-18T22:32:47.740Z,39.75
2022-11-18T22:35:16.407Z,38.75
2022-11-18T22:37:44.761Z,41.00
2022-11-18T22:40:13.647Z,38.00
2022-11-18T22:42:48.246Z,36.00
2022-11-18T22:45:18.026Z,37.25
2022-11-18T22:47:46.320Z,37.75
2022-11-18T22:50:17.768Z,39.50
2022-11-18T22:52:46.040Z,40.33
2022-11-18T22:55:15.989Z,38.25
2022-11-18T22:57:45.278Z,37.50
2022-11-18T23:00:15.007Z,40.00
2022-11-18T23:02:43.790Z,39.50
2022-11-18T23:05:13.728Z,36.25
2022-11-18T23:07:42.270Z,37.50
2022-11-18T23:10:11.091Z,36.50
2022-11-18T23:12:58.027Z,39.50
2022-11-18T23:15:27.717Z,34.25
2022-11-18T23:17:56.088Z,40.33
2022-11-18T23:20:24.697Z,39.75
2022-11-18T23:22:53.783Z,38.25
2022-11-18T23:25:22.573Z,38.25
2022-11-18T23:27:54.204Z,38.50
2022-11-18T23:30:23.570Z,36.50
2022-11-18T23:32:55.328Z,36.25
2022-11-18T23:35:24.808Z,40.33
2022-11-18T23:37:54.527Z,39.00
2022-11-18T23:40:24.388Z,39.50
2022-11-18T23:42:53.568Z,36.00
2022-11-18T23:45:22.207Z,39.75
2022-11-18T23:47:50.467Z,35.25
2022-11-18T23:50:19.089Z,37.50
2022-11-18T23:52:47.577Z,38.00
2022-11-18T23:55:17.349Z,36.33
2022-11-18T23:57:45.587Z,33.00
